Time;durP1;ratioP1;P1;durP2;ratioP2;P2;SDS_P1;SDS_P2;PMS_P1;PMS_P2;Temp;Humidity;BMP_temperature;BMP_pressure;BME280_temperature;BME280_humidity;BME280_pressure;Samples;Min_cycle;Max_cycle;Signal;HPM_P1;HPM_P2
2024/02/07 00:00:17;;;;;;;;;;;;;;;21.49;24.63;97521.47;5091791;28;966;-75
2024/02/07 00:02:43;;;;;;;;;;;;;;;21.61;24.52;97519.91;5058453;28;1002;-76
2024/02/07 00:05:08;;;;;;;;;;;;;;;21.64;24.51;97521.78;5091522;28;1141;-75
2024/02/07 00:07:34;;;;;;;;;;;;;;;21.78;24.08;97517.69;5091778;28;1047;-76
2024/02/07 00:10:00;;;;;;;;;;;;;;;21.79;23.94;97520.06;5074827;28;979;-75
2024/02/07 00:12:25;;;;;;;;;;;;;;;21.57;24.27;97510.72;5091449;28;1979;-76
2024/02/07 00:14:51;;;;;;;;;;;;;;;20.88;25.39;97510.53;5058110;28;1130;-75
2024/02/07 00:17:17;;;;;;;;;;;;;;;21.40;24.53;97512.09;5079420;28;1427;-75
2024/02/07 00:19:42;;;;;;;;;;;;;;;21.75;24.08;97510.88;5075863;28;968;-76
2024/02/07 00:22:08;;;;;;;;;;;;;;;21.63;24.17;97520.22;5076963;28;978;-76
2024/02/07 00:24:33;;;;;;;;;;;;;;;21.43;24.33;97522.53;5075691;28;1097;-75
2024/02/07 00:26:59;;;;;;;;;;;;;;;21.27;24.67;97527.03;5059455;28;1387;-76
2024/02/07 00:29:25;;;;;;;;;;;;;;;21.29;24.72;97524.53;5075709;28;1100;-76
2024/02/07 00:31:50;;;;;;;;;;;;;;;21.37;24.66;97518.69;5059031;28;1043;-75
2024/02/07 00:34:16;;;;;;;;;;;;;;;21.80;23.93;97513.13;5058424;28;1891;-75
2024/02/07 00:36:42;;;;;;;;;;;;;;;21.48;24.45;97514.25;5094707;28;999;-76
2024/02/07 00:39:07;;;;;;;;;;;;;;;21.50;24.35;97516.63;5094364;28;1235;-76
2024/02/07 00:41:33;;;;;;;;;;;;;;;21.36;24.55;97517.13;5077553;28;1061;-76
2024/02/07 00:43:59;;;;;;;;;;;;;;;21.46;24.39;97515.97;5094691;28;929;-76
2024/02/07 00:46:24;;;;;;;;;;;;;;;21.72;23.78;97506.16;5061015;28;1244;-76
2024/02/07 00:48:50;;;;;;;;;;;;;;;21.93;23.57;97506.66;5077037;28;1456;-75
2024/02/07 00:51:15;;;;;;;;;;;;;;;21.77;23.68;97505.56;5077925;28;1088;-76
2024/02/07 00:53:41;;;;;;;;;;;;;;;21.43;24.17;97499.88;5077084;28;1910;-76
2024/02/07 00:56:07;;;;;;;;;;;;;;;21.27;24.52;97492.31;5077339;28;919;-76
2024/02/07 00:58:32;;;;;;;;;;;;;;;21.12;24.71;97494.00;5077119;28;988;-76
2024/02/07 01:00:58;;;;;;;;;;;;;;;21.81;23.81;97492.09;5094359;28;937;-75
2024/02/07 01:03:24;;;;;;;;;;;;;;;21.68;23.86;97493.38;5094095;28;929;-76
2024/02/07 01:05:49;;;;;;;;;;;;;;;21.75;23.88;97488.22;5094618;28;956;-76
2024/02/07 01:08:15;;;;;;;;;;;;;;;21.80;23.68;97484.81;5074808;28;922;-75
2024/02/07 01:10:42;;;;;;;;;;;;;;;21.42;23.78;97413.41;5075202;28;1147;-76
2024/02/07 01:13:07;;;;;;;;;;;;;;;21.42;24.21;97487.00;5076346;28;1972;-75
2024/02/07 01:15:33;;;;;;;;;;;;;;;21.55;23.96;97490.56;5075070;28;1101;-76
2024/02/07 01:17:58;;;;;;;;;;;;;;;21.41;24.18;97485.41;5074765;28;960;-76
2024/02/07 01:20:24;;;;;;;;;;;;;;;21.51;24.22;97476.53;5074911;28;918;-75
2024/02/07 01:22:50;;;;;;;;;;;;;;;21.77;23.71;97474.44;5058054;28;1008;-75
2024/02/07 01:25:17;;;;;;;;;;;;;;;21.64;23.92;97476.50;5075002;28;1060;-76
2024/02/07 01:27:42;;;;;;;;;;;;;;;21.75;23.58;97471.25;5074932;28;968;-76
2024/02/07 01:30:11;;;;;;;;;;;;;;;21.58;23.71;97467.78;5074759;28;911;-76
2024/02/07 01:32:39;;;;;;;;;;;;;;;21.81;23.54;97469.44;5075065;28;1905;-75
2024/02/07 01:35:05;;;;;;;;;;;;;;;21.36;24.06;97469.78;5074461;28;991;-76
2024/02/07 01:37:31;;;;;;;;;;;;;;;21.56;24.04;97463.84;5057194;28;1064;-76
2024/02/07 01:39:57;;;;;;;;;;;;;;;21.70;23.65;97463.34;5074578;28;985;-76
2024/02/07 01:42:28;;;;;;;;;;;;;;;21.70;23.90;97463.34;5075013;28;996;-76
2024/02/07 01:45:08;;;;;;;;;;;;;;;21.78;23.44;97459.00;5057983;28;1429;-76
2024/02/07 01:47:34;;;;;;;;;;;;;;;21.62;23.58;97462.03;5078949;28;960;-76
2024/02/07 01:49:59;;;;;;;;;;;;;;;21.58;23.81;97461.34;5078368;28;980;-75
2024/02/07 01:52:25;;;;;;;;;;;;;;;21.67;23.59;97458.59;5079094;28;1906;-76
2024/02/07 01:54:52;;;;;;;;;;;;;;;21.62;23.82;97462.03;5078491;28;938;-76
2024/02/07 01:57:18;;;;;;;;;;;;;;;21.69;23.40;97452.47;5080078;28;930;-75
2024/02/07 01:59:43;;;;;;;;;;;;;;;21.79;23.34;97449.25;5078318;28;928;-76
2024/02/07 02:02:09;;;;;;;;;;;;;;;21.65;23.55;97458.25;5078761;28;906;-75
2024/02/07 02:04:35;;;;;;;;;;;;;;;21.65;23.61;97461.09;5079398;28;909;-76
2024/02/07 02:07:01;;;;;;;;;;;;;;;21.59;23.50;97458.06;5078429;28;1023;-76
2024/02/07 02:09:27;;;;;;;;;;;;;;;21.25;23.99;97450.31;5078658;28;987;-75
2024/02/07 02:11:52;;;;;;;;;;;;;;;21.43;23.79;97455.38;5078318;28;1107;-76
2024/02/07 02:14:18;;;;;;;;;;;;;;;21.52;23.78;97466.00;5078041;28;1992;-76
2024/02/07 02:16:44;;;;;;;;;;;;;;;21.69;23.72;97467.41;5060301;28;1288;-76
2024/02/07 02:19:10;;;;;;;;;;;;;;;21.74;23.54;97464.00;5076470;28;946;-76
2024/02/07 02:21:40;;;;;;;;;;;;;;;21.75;23.35;97470.44;5077092;28;1219;-76
2024/02/07 02:24:24;;;;;;;;;;;;;;;21.70;23.65;97474.66;5076685;28;972;-75
2024/02/07 02:26:55;;;;;;;;;;;;;;;21.44;24.05;97484.47;5076911;28;1414;-75
2024/02/07 02:29:36;;;;;;;;;;;;;;;21.39;23.76;97470.91;5093720;28;1086;-76
2024/02/07 02:32:02;;;;;;;;;;;;;;;21.16;24.03;97474.88;5091961;28;1001;-76
2024/02/07 02:34:28;;;;;;;;;;;;;;;21.66;23.53;97476.84;5076503;28;1913;-75
2024/02/07 02:36:54;;;;;;;;;;;;;;;21.69;23.56;97477.97;5093570;28;952;-75
2024/02/07 02:39:19;;;;;;;;;;;;;;;21.75;23.32;97471.25;5076206;28;1083;-75
2024/02/07 02:41:45;;;;;;;;;;;;;;;21.87;23.24;97477.34;5093413;28;1018;-76
2024/02/07 02:44:11;;;;;;;;;;;;;;;21.62;23.71;97479.00;5059561;28;951;-76
2024/02/07 02:46:37;;;;;;;;;;;;;;;21.29;23.89;97478.47;5076779;28;1093;-75
2024/02/07 02:49:03;;;;;;;;;;;;;;;21.42;23.75;97475.66;5077536;28;932;-76
2024/02/07 02:51:29;;;;;;;;;;;;;;;21.32;23.90;97475.56;5077808;28;933;-75
2024/02/07 02:53:54;;;;;;;;;;;;;;;21.52;23.88;97468.84;5077445;28;1902;-76
2024/02/07 02:56:20;;;;;;;;;;;;;;;21.89;23.28;97480.50;5078680;28;909;-76
2024/02/07 02:58:46;;;;;;;;;;;;;;;21.79;23.22;97483.25;5059727;28;951;-75
2024/02/07 03:01:11;;;;;;;;;;;;;;;21.53;23.71;97481.75;5078924;28;1144;-76
2024/02/07 03:03:38;;;;;;;;;;;;;;;21.27;23.88;97476.09;5077524;28;916;-76
2024/02/07 03:06:07;;;;;;;;;;;;;;;21.31;23.84;97479.66;5077751;28;964;-76
2024/02/07 03:08:53;;;;;;;;;;;;;;;21.57;23.82;97482.41;5077391;28;984;-75
2024/02/07 03:11:20;;;;;;;;;;;;;;;21.72;23.58;97483.50;5078218;28;1167;-75
2024/02/07 03:13:46;;;;;;;;;;;;;;;21.94;23.04;97465.75;5077402;28;1973;-76
2024/02/07 03:16:12;;;;;;;;;;;;;;;21.72;23.71;97460.84;5076460;28;984;-76
2024/02/07 03:18:38;;;;;;;;;;;;;;;21.66;23.47;97462.69;5078480;28;922;-76
2024/02/07 03:21:08;;;;;;;;;;;;;;;21.84;23.36;97462.03;5077153;28;917;-75
2024/02/07 03:23:34;;;;;;;;;;;;;;;21.58;23.47;97455.69;5059745;28;1158;-76
2024/02/07 03:26:04;;;;;;;;;;;;;;;21.42;23.58;97455.84;5060609;28;1567;-76
2024/02/07 03:28:31;;;;;;;;;;;;;;;21.38;24.02;97452.34;5078250;28;939;-75
2024/02/07 03:30:56;;;;;;;;;;;;;;;21.12;24.18;97449.53;5076826;28;965;-77
2024/02/07 03:33:22;;;;;;;;;;;;;;;21.55;23.61;97451.75;5059920;28;2047;-76
2024/02/07 03:35:48;;;;;;;;;;;;;;;21.74;23.55;97458.34;5060443;28;1137;-75
2024/02/07 03:38:13;;;;;;;;;;;;;;;21.94;23.36;97460.06;5077911;28;980;-76
2024/02/07 03:40:39;;;;;;;;;;;;;;;21.91;23.08;97460.97;5077849;28;1068;-76
2024/02/07 03:43:06;;;;;;;;;;;;;;;21.91;23.07;97455.31;5075180;28;1146;-76
2024/02/07 03:45:32;;;;;;;;;;;;;;;21.57;23.86;97449.22;5058757;28;1146;-76
2024/02/07 03:47:58;;;;;;;;;;;;;;;21.26;23.99;97454.72;5058626;28;944;-77
2024/02/07 03:50:25;;;;;;;;;;;;;;;21.17;24.10;97454.63;5075520;28;1005;-76
2024/02/07 03:52:50;;;;;;;;;;;;;;;21.57;23.62;97462.59;5038477;28;1902;-76
2024/02/07 03:55:16;;;;;;;;;;;;;;;21.44;24.07;97465.44;5038263;28;981;-76
2024/02/07 03:57:44;;;;;;;;;;;;;;;21.96;23.42;97463.22;5055142;28;999;-76
2024/02/07 04:00:13;;;;;;;;;;;;;;;21.78;23.36;97461.84;5038561;28;1020;-75
2024/02/07 04:02:39;;;;;;;;;;;;;;;21.22;24.14;97462.53;5038773;28;1007;-76
2024/02/07 04:05:07;;;;;;;;;;;;;;;21.05;24.52;97463.94;5022029;28;1012;-76
2024/02/07 04:07:33;;;;;;;;;;;;;;;21.29;24.15;97462.28;5014772;28;948;-75
2024/02/07 04:09:58;;;;;;;;;;;;;;;21.31;23.77;97465.50;4998621;28;938;-76
2024/02/07 05:17:14;;;;;;;;;;;;;;;21.58;23.82;97472.66;5074997;28;782;-75
2024/02/07 05:19:39;;;;;;;;;;;;;;;21.58;23.87;97478.34;5074568;28;794;-76
2024/02/07 05:22:05;;;;;;;;;;;;;;;21.77;23.63;97468.75;5076243;28;734;-76
2024/02/07 05:24:31;;;;;;;;;;;;;;;21.94;23.58;97468.56;5041709;28;1075;-77
2024/02/07 05:26:57;;;;;;;;;;;;;;;21.53;24.10;97471.22;5074841;28;778;-76
2024/02/07 05:29:22;;;;;;;;;;;;;;;21.51;23.99;97470.88;5074910;28;719;-75
2024/02/07 05:31:48;;;;;;;;;;;;;;;21.13;24.48;97464.47;5074755;28;895;-76
2024/02/07 05:34:13;;;;;;;;;;;;;;;21.24;24.59;97468.56;5074678;28;1906;-75
2024/02/07 05:36:39;;;;;;;;;;;;;;;21.56;24.27;97452.53;5074968;28;758;-76
2024/02/07 05:39:05;;;;;;;;;;;;;;;21.72;23.85;97451.56;5074396;28;1074;-75
2024/02/07 05:41:30;;;;;;;;;;;;;;;21.64;23.91;97448.19;5075199;28;802;-76
2024/02/07 05:43:56;;;;;;;;;;;;;;;21.69;23.89;97450.44;5076182;28;758;-76
2024/02/07 05:46:21;;;;;;;;;;;;;;;21.99;23.49;97446.09;5053439;28;1129;-76
2024/02/07 05:48:47;;;;;;;;;;;;;;;22.05;23.27;97449.13;5053348;28;798;-75
2024/02/07 05:51:19;;;;;;;;;;;;;;;21.83;23.47;97449.94;5036993;28;795;-75
2024/02/07 05:53:45;;;;;;;;;;;;;;;21.45;24.08;97452.09;5036580;28;1979;-75
2024/02/07 05:56:10;;;;;;;;;;;;;;;21.32;24.44;97450.09;5036812;28;822;-76
2024/02/07 05:58:39;;;;;;;;;;;;;;;21.30;24.51;97457.47;5052948;28;794;-77
2024/02/07 06:01:06;;;;;;;;;;;;;;;21.38;24.13;97452.34;5033649;28;833;-76
2024/02/07 06:03:32;;;;;;;;;;;;;;;21.43;24.06;97451.78;5016815;28;884;-75
2024/02/07 06:05:58;;;;;;;;;;;;;;;21.89;23.63;97455.78;5000866;28;1575;-76
2024/02/07 06:08:24;;;;;;;;;;;;;;;21.86;23.87;97465.19;4984373;28;1248;-75
2024/02/07 06:10:49;;;;;;;;;;;;;;;21.75;23.98;97454.25;5016765;28;932;-76
2024/02/07 06:13:15;;;;;;;;;;;;;;;21.40;24.23;97461.97;5032668;28;1977;-76
2024/02/07 06:15:41;;;;;;;;;;;;;;;21.44;24.33;97456.97;5033318;28;806;-76
2024/02/07 06:18:07;;;;;;;;;;;;;;;21.18;24.59;97456.19;5012665;28;961;-75
2024/02/07 06:20:32;;;;;;;;;;;;;;;21.64;23.94;97453.84;5000492;28;1449;-76
2024/02/07 06:22:58;;;;;;;;;;;;;;;21.56;24.10;97446.88;4993437;28;1083;-76
2024/02/07 06:25:23;;;;;;;;;;;;;;;21.79;24.02;97449.25;4974301;28;1263;-76
2024/02/07 06:27:49;;;;;;;;;;;;;;;21.85;23.61;97453.06;4974170;28;1308;-76
2024/02/07 06:30:14;;;;;;;;;;;;;;;21.77;23.90;97448.94;4974244;28;1108;-76
2024/02/07 06:32:40;;;;;;;;;;;;;;;22.00;23.75;97446.91;4959693;28;1981;-76
2024/02/07 06:35:06;;;;;;;;;;;;;;;21.67;23.84;97452.94;4958268;28;1128;-76
2024/02/07 06:37:32;;;;;;;;;;;;;;;21.42;24.60;97441.69;4974261;28;961;-75
2024/02/07 06:39:57;;;;;;;;;;;;;;;21.57;24.03;97442.78;4958377;29;801;-76
2024/02/07 06:42:23;;;;;;;;;;;;;;;21.68;24.06;97446.03;4958500;29;799;-76
2024/02/07 06:44:48;;;;;;;;;;;;;;;21.58;24.41;97442.31;4942276;29;846;-75
2024/02/07 06:47:14;;;;;;;;;;;;;;;21.51;24.28;97451.06;4942432;29;1152;-76
2024/02/07 06:49:40;;;;;;;;;;;;;;;21.68;23.97;97454.53;4956084;28;1103;-76
2024/02/07 06:52:06;;;;;;;;;;;;;;;21.79;23.96;97449.25;4977473;28;937;-76
2024/02/07 06:54:32;;;;;;;;;;;;;;;21.73;23.91;97455.97;4995206;28;1967;-76
2024/02/07 06:56:57;;;;;;;;;;;;;;;21.51;24.25;97453.91;5029366;28;902;-75
2024/02/07 06:59:23;;;;;;;;;;;;;;;21.65;24.32;97460.28;5019208;28;959;-76
2024/02/07 07:01:48;;;;;;;;;;;;;;;21.44;24.50;97462.63;5036425;28;1027;-75
2024/02/07 07:04:14;;;;;;;;;;;;;;;21.18;25.10;97467.53;5019627;28;1007;-76
2024/02/07 07:06:40;;;;;;;;;;;;;;;21.64;24.38;97453.06;5050850;28;890;-76
2024/02/07 07:09:05;;;;;;;;;;;;;;;21.70;24.11;97448.38;5039563;28;789;-76
2024/02/07 07:11:31;;;;;;;;;;;;;;;21.91;23.82;97456.09;5039765;28;1055;-76
2024/02/07 07:13:57;;;;;;;;;;;;;;;21.64;24.34;97450.22;5055999;28;2277;-76
2024/02/07 07:16:22;;;;;;;;;;;;;;;21.43;24.66;97448.94;5039548;28;822;-76
2024/02/07 07:18:52;;;;;;;;;;;;;;;21.52;24.72;97452.66;5022351;28;799;-76
2024/02/07 07:21:18;;;;;;;;;;;;;;;21.45;24.48;97446.44;5056175;28;865;-76
2024/02/07 07:23:43;;;;;;;;;;;;;;;21.63;24.45;97448.66;5039360;28;776;-75
2024/02/07 07:26:09;;;;;;;;;;;;;;;21.82;23.99;97442.69;5055638;28;985;-74
2024/02/07 07:28:35;;;;;;;;;;;;;;;21.98;23.83;97443.75;5022072;28;810;-74
2024/02/07 07:31:00;;;;;;;;;;;;;;;21.67;24.26;97438.78;5050570;28;818;-74
2024/02/07 07:33:26;;;;;;;;;;;;;;;21.66;24.31;97444.88;5077332;28;1894;-74
2024/02/07 07:35:51;;;;;;;;;;;;;;;21.27;24.70;97453.47;5076399;28;723;-73
2024/02/07 07:38:17;;;;;;;;;;;;;;;21.64;24.63;97453.84;5060021;28;1146;-74
2024/02/07 07:40:42;;;;;;;;;;;;;;;21.81;24.04;97445.97;5076517;28;869;-74
2024/02/07 07:43:08;;;;;;;;;;;;;;;21.73;24.18;97438.97;5042719;28;1202;-73
2024/02/07 07:45:34;;;;;;;;;;;;;;;21.62;24.38;97436.53;5074640;28;891;-74
2024/02/07 07:47:59;;;;;;;;;;;;;;;21.36;24.87;97433.00;5074936;28;887;-74
2024/02/07 07:50:25;;;;;;;;;;;;;;;21.37;24.83;97430.97;5095174;28;949;-74
2024/02/07 07:52:50;;;;;;;;;;;;;;;21.42;24.73;97428.34;5078412;28;1972;-74
2024/02/07 07:55:16;;;;;;;;;;;;;;;21.44;24.49;97433.53;5095323;28;778;-74
2024/02/07 07:57:41;;;;;;;;;;;;;;;21.84;24.01;97436.56;5078843;28;719;-73
2024/02/07 08:00:07;;;;;;;;;;;;;;;21.87;24.24;97438.47;5095700;28;790;-74
2024/02/07 08:02:39;;;;;;;;;;;;;;;21.77;24.34;97434.78;5062771;28;893;-73
2024/02/07 08:05:05;;;;;;;;;;;;;;;21.36;24.74;97449.97;5094671;28;862;-73
2024/02/07 08:07:31;;;;;;;;;;;;;;;21.20;24.94;97453.72;5094969;28;678;-74
2024/02/07 08:09:56;;;;;;;;;;;;;;;21.46;24.91;97442.38;5077852;28;925;-74
2024/02/07 08:12:22;;;;;;;;;;;;;;;21.71;24.67;97445.13;5060891;28;1144;-73
2024/02/07 08:14:47;;;;;;;;;;;;;;;21.48;24.81;97439.88;5095127;28;1951;-74
2024/02/07 08:17:17;;;;;;;;;;;;;;;21.81;24.15;97434.63;5077855;28;895;-74
2024/02/07 08:19:44;;;;;;;;;;;;;;;21.67;24.42;97432.34;5094666;28;683;-73
2024/02/07 08:22:09;;;;;;;;;;;;;;;21.17;25.40;97429.16;5080049;28;760;-74
2024/02/07 08:24:35;;;;;;;;;;;;;;;21.47;24.74;97433.41;5075745;28;691;-74
2024/02/07 08:27:00;;;;;;;;;;;;;;;21.64;24.74;97430.41;5076855;28;703;-74
2024/02/07 08:29:29;;;;;;;;;;;;;;;21.95;24.30;97433.31;5076347;28;748;-74
2024/02/07 08:31:54;;;;;;;;;;;;;;;21.83;24.38;97427.28;5075825;28;866;-73
2024/02/07 08:34:20;;;;;;;;;;;;;;;21.71;24.58;97436.63;5058771;28;1982;-74
2024/02/07 08:36:46;;;;;;;;;;;;;;;21.18;25.17;97433.56;5075355;28;681;-74
2024/02/07 08:39:12;;;;;;;;;;;;;;;21.36;25.14;97437.88;5075396;28;622;-74
2024/02/07 08:41:40;;;;;;;;;;;;;;;21.31;25.39;97440.03;5076823;28;662;-74
2024/02/07 08:44:06;;;;;;;;;;;;;;;21.71;24.69;97436.63;5058817;28;681;-74
2024/02/07 08:46:31;;;;;;;;;;;;;;;21.68;24.43;97440.34;5094223;28;906;-74
2024/02/07 08:48:57;;;;;;;;;;;;;;;21.79;24.43;97431.47;5094055;28;808;-74
2024/02/07 08:51:22;;;;;;;;;;;;;;;21.87;24.33;97437.69;5094628;28;881;-74
2024/02/07 08:53:48;;;;;;;;;;;;;;;21.62;24.95;97433.72;5077002;28;1910;-73
2024/02/07 08:56:13;;;;;;;;;;;;;;;21.49;24.92;97444.28;5093394;28;777;-74
2024/02/07 08:58:39;;;;;;;;;;;;;;;21.45;25.28;97437.94;5076962;28;685;-75
2024/02/07 09:01:05;;;;;;;;;;;;;;;21.47;25.10;97443.94;5077283;28;901;-74
2024/02/07 09:03:31;;;;;;;;;;;;;;;21.65;24.86;97440.47;5036846;28;980;-74
2024/02/07 09:05:56;;;;;;;;;;;;;;;21.73;24.88;97436.94;5037416;28;895;-74
2024/02/07 09:08:22;;;;;;;;;;;;;;;21.80;24.77;97445.16;5037080;28;708;-74
2024/02/07 09:10:47;;;;;;;;;;;;;;;21.95;24.44;97448.28;5053541;28;1088;-74
2024/02/07 09:13:13;;;;;;;;;;;;;;;21.65;24.73;97444.09;5053234;28;1909;-73
2024/02/07 09:15:40;;;;;;;;;;;;;;;21.33;25.49;97445.22;5054029;28;1539;-74
2024/02/07 09:18:05;;;;;;;;;;;;;;;21.19;25.48;97445.66;5036186;28;1110;-74
2024/02/07 09:20:31;;;;;;;;;;;;;;;20.90;26.14;97440.19;5053663;28;850;-74
2024/02/07 09:22:56;;;;;;;;;;;;;;;21.68;25.11;97426.22;5036737;28;900;-74
2024/02/07 09:25:22;;;;;;;;;;;;;;;21.63;24.82;97423.16;5053159;28;792;-74
2024/02/07 09:27:48;;;;;;;;;;;;;;;21.60;24.87;97424.88;5053141;28;904;-74
2024/02/07 09:30:13;;;;;;;;;;;;;;;21.23;25.34;97424.50;5053020;28;810;-74
2024/02/07 09:32:39;;;;;;;;;;;;;;;21.32;25.39;97418.19;5036588;28;973;-74
2024/02/07 09:35:06;;;;;;;;;;;;;;;21.41;25.23;97423.94;5011154;28;1910;-74
2024/02/07 09:37:32;;;;;;;;;;;;;;;21.62;24.88;97419.56;5033181;28;913;-74
2024/02/07 09:39:57;;;;;;;;;;;;;;;21.84;25.01;97417.50;5000049;28;875;-74
2024/02/07 09:42:23;;;;;;;;;;;;;;;21.69;25.12;97418.50;5016592;28;747;-74
2024/02/07 09:44:49;;;;;;;;;;;;;;;21.73;24.89;97414.28;5033064;28;842;-74
2024/02/07 09:47:15;;;;;;;;;;;;;;;21.26;25.38;97420.78;5000467;28;774;-74
2024/02/07 09:49:41;;;;;;;;;;;;;;;21.31;25.31;97408.91;5031703;28;982;-75
2024/02/07 09:52:07;;;;;;;;;;;;;;;21.39;25.37;97402.97;5036477;28;852;-74
2024/02/07 09:54:32;;;;;;;;;;;;;;;21.63;25.07;97394.84;5036143;28;1973;-74
2024/02/07 09:56:58;;;;;;;;;;;;;;;21.75;24.71;97397.63;5036510;28;764;-74
2024/02/07 09:59:23;;;;;;;;;;;;;;;21.59;25.01;97392.16;5036165;28;742;-73
2024/02/07 10:01:49;;;;;;;;;;;;;;;21.31;25.62;97394.75;5036118;28;705;-74
2024/02/07 10:04:16;;;;;;;;;;;;;;;21.30;25.39;97395.22;5036207;28;763;-74
2024/02/07 10:06:42;;;;;;;;;;;;;;;21.39;25.60;97391.66;5054624;28;1253;-74
2024/02/07 10:09:08;;;;;;;;;;;;;;;21.63;25.20;97389.19;5023555;28;1151;-74
2024/02/07 10:11:33;;;;;;;;;;;;;;;21.68;25.00;97397.88;5025865;28;1064;-73
2024/02/07 10:13:59;;;;;;;;;;;;;;;21.73;24.99;97383.16;5061093;28;1971;-74
2024/02/07 10:16:25;;;;;;;;;;;;;;;21.83;24.89;97386.84;5061106;28;790;-74
2024/02/07 10:18:50;;;;;;;;;;;;;;;21.63;25.26;97389.97;5060642;28;743;-74
2024/02/07 10:21:16;;;;;;;;;;;;;;;21.44;25.53;97382.59;5079542;28;767;-75
2024/02/07 10:23:42;;;;;;;;;;;;;;;21.30;25.78;97390.34;5077157;28;857;-73
2024/02/07 10:26:09;;;;;;;;;;;;;;;21.79;25.04;97378.47;5078102;28;786;-74
2024/02/07 10:28:35;;;;;;;;;;;;;;;21.70;24.99;97381.22;5060744;28;1134;-74
2024/02/07 10:31:04;;;;;;;;;;;;;;;21.91;24.99;97382.47;5078923;28;714;-74
2024/02/07 10:33:36;;;;;;;;;;;;;;;21.92;24.84;97366.28;5077532;28;1906;-74
2024/02/07 10:36:02;;;;;;;;;;;;;;;21.57;25.21;97369.19;5061291;28;1237;-74
2024/02/07 10:38:28;;;;;;;;;;;;;;;21.40;25.58;97373.44;5060907;28;1110;-73
2024/02/07 10:40:53;;;;;;;;;;;;;;;21.43;25.33;97378.97;5059488;28;1148;-74
2024/02/07 10:43:25;;;;;;;;;;;;;;;21.18;26.01;97371.31;5059579;28;921;-74
2024/02/07 10:45:57;;;;;;;;;;;;;;;21.45;25.29;97364.34;5076133;28;1322;-74
2024/02/07 10:48:23;;;;;;;;;;;;;;;21.70;25.21;97366.28;5059309;28;825;-74
2024/02/07 10:50:49;;;;;;;;;;;;;;;21.91;24.73;97356.97;5076211;28;739;-74
2024/02/07 10:53:14;;;;;;;;;;;;;;;21.35;25.55;97362.69;5059130;28;1906;-74
2024/02/07 10:55:40;;;;;;;;;;;;;;;21.43;25.43;97361.19;5075895;28;1071;-74
2024/02/07 10:58:05;;;;;;;;;;;;;;;21.42;25.30;97368.13;5042439;28;984;-74
2024/02/07 11:00:31;;;;;;;;;;;;;;;21.43;25.63;97361.19;5059261;28;970;-74
2024/02/07 11:02:56;;;;;;;;;;;;;;;21.72;25.13;97356.09;5059259;28;1091;-74
2024/02/07 11:05:22;;;;;;;;;;;;;;;21.74;24.92;97353.56;5075815;28;810;-74
2024/02/07 11:07:48;;;;;;;;;;;;;;;21.25;25.96;97356.94;5042382;28;1449;-74
2024/02/07 11:10:14;;;;;;;;;;;;;;;21.29;25.59;97348.31;5058662;28;1119;-74
2024/02/07 11:12:39;;;;;;;;;;;;;;;21.30;25.64;97345.06;5042277;28;1181;-74
2024/02/07 11:15:05;;;;;;;;;;;;;;;21.52;25.38;97355.63;5058543;28;1977;-74
2024/02/07 11:17:31;;;;;;;;;;;;;;;21.50;25.59;97349.59;5061887;28;915;-74
2024/02/07 11:19:56;;;;;;;;;;;;;;;21.61;25.38;97335.88;5078457;28;766;-74
2024/02/07 11:22:39;;;;;;;;;;;;;;;21.22;25.82;97348.56;5095603;28;971;-74
2024/02/07 11:25:04;;;;;;;;;;;;;;;21.28;25.84;97324.88;5055110;28;1145;-74
2024/02/07 11:27:30;;;;;;;;;;;;;;;21.41;25.37;97332.59;5038730;28;910;-73
2024/02/07 11:29:56;;;;;;;;;;;;;;;21.57;25.39;97323.88;5072121;28;1214;-73
2024/02/07 11:32:21;;;;;;;;;;;;;;;21.67;25.41;97316.25;5055294;28;960;-73
2024/02/07 11:34:55;;;;;;;;;;;;;;;21.93;24.90;97316.88;5055067;28;1984;-73
2024/02/07 11:37:22;;;;;;;;;;;;;;;21.55;25.37;97315.06;5055074;28;1001;-74
2024/02/07 11:39:48;;;;;;;;;;;;;;;21.19;25.67;97310.69;5055194;28;845;-74
2024/02/07 11:42:14;;;;;;;;;;;;;;;21.38;25.83;97313.69;5035224;28;923;-74
2024/02/07 11:44:52;;;;;;;;;;;;;;;21.66;25.36;97309.81;5018323;28;831;-74
2024/02/07 11:47:24;;;;;;;;;;;;;;;21.69;25.34;97308.84;5035009;28;809;-74
2024/02/07 11:50:07;;;;;;;;;;;;;;;21.60;25.15;97303.13;5035010;28;893;-74
2024/02/07 11:52:33;;;;;;;;;;;;;;;21.10;26.01;97296.47;5035088;28;855;-74
2024/02/07 11:55:02;;;;;;;;;;;;;;;21.28;25.78;97299.41;5018193;28;1910;-73
2024/02/07 11:57:28;;;;;;;;;;;;;;;21.11;26.11;97286.72;5018581;28;950;-74
2024/02/07 11:59:53;;;;;;;;;;;;;;;21.06;26.40;97290.94;5034445;28;868;-74
2024/02/07 12:02:19;;;;;;;;;;;;;;;21.45;25.33;97285.09;5026334;28;1221;-74
2024/02/07 12:04:45;;;;;;;;;;;;;;;21.50;25.73;97284.50;5037766;28;809;-74
2024/02/07 12:07:11;;;;;;;;;;;;;;;21.33;25.65;97287.53;5038092;28;1305;-73
2024/02/07 12:09:37;;;;;;;;;;;;;;;21.60;25.38;97286.16;5021295;28;1234;-74
2024/02/07 12:12:03;;;;;;;;;;;;;;;21.51;25.46;97286.09;5021375;28;1062;-74
2024/02/07 12:14:28;;;;;;;;;;;;;;;20.94;26.38;97290.97;5037352;28;1981;-74
2024/02/07 12:16:54;;;;;;;;;;;;;;;21.17;26.26;97290.53;5021243;28;1115;-74
2024/02/07 12:19:20;;;;;;;;;;;;;;;21.25;26.17;97283.38;5046883;28;856;-74
2024/02/07 12:21:46;;;;;;;;;;;;;;;21.61;25.57;97284.91;5034491;28;980;-74
2024/02/07 12:24:13;;;;;;;;;;;;;;;21.87;25.13;97285.53;5059879;28;1264;-74
2024/02/07 12:26:39;;;;;;;;;;;;;;;21.79;25.36;97279.34;5041012;28;1825;-73
2024/02/07 12:29:06;;;;;;;;;;;;;;;21.66;25.45;97284.31;5057055;28;1065;-74
2024/02/07 12:31:32;;;;;;;;;;;;;;;21.46;25.44;97269.72;5073421;28;1077;-74
2024/02/07 12:33:57;;;;;;;;;;;;;;;21.35;25.88;97283.47;5057149;28;1906;-74
2024/02/07 12:36:23;;;;;;;;;;;;;;;21.09;26.11;97277.91;5074220;28;834;-73
2024/02/07 12:38:48;;;;;;;;;;;;;;;21.37;25.74;97266.81;5057368;28;719;-74
2024/02/07 12:41:14;;;;;;;;;;;;;;;21.49;25.61;97266.75;5057867;28;1106;-74
2024/02/07 12:43:40;;;;;;;;;;;;;;;21.80;25.18;97263.94;5057308;28;906;-74
2024/02/07 12:46:06;;;;;;;;;;;;;;;21.56;25.51;97268.53;5037318;28;1299;-73
2024/02/07 12:48:32;;;;;;;;;;;;;;;21.29;26.00;97258.56;5053580;28;927;-74
2024/02/07 12:50:58;;;;;;;;;;;;;;;21.27;26.13;97248.97;5037577;28;897;-73
2024/02/07 12:53:24;;;;;;;;;;;;;;;21.21;25.90;97257.25;5036862;28;1968;-73
2024/02/07 12:55:50;;;;;;;;;;;;;;;21.40;25.76;97252.56;5037103;28;834;-74
2024/02/07 12:58:15;;;;;;;;;;;;;;;21.58;25.71;97257.53;5053784;28;961;-74
2024/02/07 13:00:41;;;;;;;;;;;;;;;21.65;25.60;97257.25;5053660;28;791;-74
2024/02/07 13:03:09;;;;;;;;;;;;;;;21.64;25.39;97254.88;5070304;28;817;-74
2024/02/07 13:05:35;;;;;;;;;;;;;;;21.33;25.95;97259.25;5070125;28;834;-73
2024/02/07 13:08:01;;;;;;;;;;;;;;;21.07;26.26;97252.13;5070438;28;826;-74
2024/02/07 13:10:26;;;;;;;;;;;;;;;21.38;25.77;97251.41;5069823;28;909;-74
2024/02/07 13:12:52;;;;;;;;;;;;;;;21.54;25.60;97251.19;5053265;28;1978;-73
2024/02/07 13:15:18;;;;;;;;;;;;;;;21.83;25.36;97257.34;5070142;28;963;-73
2024/02/07 13:17:48;;;;;;;;;;;;;;;21.52;25.39;97253.72;5070269;28;846;-74
2024/02/07 13:20:13;;;;;;;;;;;;;;;21.44;25.82;97247.53;5053125;28;745;-73
2024/02/07 13:22:39;;;;;;;;;;;;;;;21.31;25.96;97250.44;5072748;28;1308;-73
2024/02/07 13:25:09;;;;;;;;;;;;;;;21.45;25.89;97246.28;5041138;28;1241;-73
2024/02/07 13:27:35;;;;;;;;;;;;;;;21.73;25.49;97241.56;5074904;28;739;-73
2024/02/07 13:30:01;;;;;;;;;;;;;;;21.92;25.43;97264.31;5074161;28;857;-74
2024/02/07 13:32:27;;;;;;;;;;;;;;;21.23;25.99;97265.28;5074742;28;735;-74
2024/02/07 13:34:52;;;;;;;;;;;;;;;21.42;25.66;97271.88;5074449;28;1917;-73
2024/02/07 13:37:18;;;;;;;;;;;;;;;21.21;26.30;97262.13;5072917;28;966;-74
2024/02/07 13:39:43;;;;;;;;;;;;;;;21.49;25.80;97263.13;5032944;28;1111;-74
2024/02/07 13:42:09;;;;;;;;;;;;;;;21.89;25.24;97270.91;5035826;28;945;-74
2024/02/07 13:44:34;;;;;;;;;;;;;;;21.19;26.29;97265.44;5020695;28;774;-73
2024/02/07 13:47:03;;;;;;;;;;;;;;;21.07;26.60;97266.25;5037426;28;777;-74
2024/02/07 13:49:29;;;;;;;;;;;;;;;21.21;26.11;97262.91;5020725;28;1051;-74
2024/02/07 13:51:54;;;;;;;;;;;;;;;21.35;26.11;97249.50;5036906;28;985;-73
2024/02/07 13:54:20;;;;;;;;;;;;;;;21.53;25.78;97255.28;5036852;28;1901;-74
2024/02/07 13:56:45;;;;;;;;;;;;;;;21.91;25.33;97251.38;5037368;28;774;-74
2024/02/07 13:59:11;;;;;;;;;;;;;;;21.89;25.14;97245.41;5020619;28;779;-74
2024/02/07 14:01:37;;;;;;;;;;;;;;;21.22;26.14;97253.16;5020820;28;1080;-74